sensor_id;sensor_type;location;lat;lon;timestamp;pressure;altitude;pressure_sealevel;temperature;humidity
70458;BME280;57919;56.194;95.716;2023-12-20T00:02:20;101320.69;;;-30.88;59.32
70458;BME280;57919;56.194;95.716;2023-12-20T00:12:22;101317.19;;;-30.98;60.06
70458;BME280;57919;56.194;95.716;2023-12-20T00:22:24;101312.22;;;-30.89;60.13
70458;BME280;57919;56.194;95.716;2023-12-20T00:32:26;101315.16;;;-30.62;60.09
70458;BME280;57919;56.194;95.716;2023-12-20T00:42:28;101317.22;;;-30.42;59.74
70458;BME280;57919;56.194;95.716;2023-12-20T00:52:30;101305.34;;;-30.34;59.86
70458;BME280;57919;56.194;95.716;2023-12-20T01:02:32;101326.53;;;-30.49;59.01
70458;BME280;57919;56.194;95.716;2023-12-20T01:12:36;101313.53;;;-30.77;59.29
70458;BME280;57919;56.194;95.716;2023-12-20T01:22:38;101313.19;;;-30.80;59.00
70458;BME280;57919;56.194;95.716;2023-12-20T01:32:41;101328.28;;;-31.20;58.32
70458;BME280;57919;56.194;95.716;2023-12-20T01:42:43;101327.06;;;-31.24;59.26
70458;BME280;57919;56.194;95.716;2023-12-20T01:52:45;101328.44;;;-31.34;58.90
70458;BME280;57919;56.194;95.716;2023-12-20T02:02:47;101336.16;;;-31.33;59.01
70458;BME280;57919;56.194;95.716;2023-12-20T02:12:49;101340.66;;;-31.30;59.00
70458;BME280;57919;56.194;95.716;2023-12-20T02:22:51;101336.72;;;-31.35;58.88
70458;BME280;57919;56.194;95.716;2023-12-20T02:32:53;101355.00;;;-31.22;58.81
70458;BME280;57919;56.194;95.716;2023-12-20T02:42:55;101359.91;;;-30.92;59.01
70458;BME280;57919;56.194;95.716;2023-12-20T02:52:57;101351.84;;;-30.65;59.09
70458;BME280;57919;56.194;95.716;2023-12-20T03:03:00;101354.41;;;-30.25;59.20
70458;BME280;57919;56.194;95.716;2023-12-20T03:13:02;101354.47;;;-29.92;59.13
70458;BME280;57919;56.194;95.716;2023-12-20T03:23:03;101354.63;;;-29.66;58.54
70458;BME280;57919;56.194;95.716;2023-12-20T03:33:06;101329.13;;;-29.68;58.61
70458;BME280;57919;56.194;95.716;2023-12-20T03:43:09;101336.81;;;-29.50;58.67
70458;BME280;57919;56.194;95.716;2023-12-20T03:53:11;101325.00;;;-29.59;57.96
70458;BME280;57919;56.194;95.716;2023-12-20T04:03:13;101343.53;;;-29.75;59.62
70458;BME280;57919;56.194;95.716;2023-12-20T04:13:15;101349.88;;;-29.21;57.19
70458;BME280;57919;56.194;95.716;2023-12-20T04:23:17;101323.91;;;-29.69;57.05
70458;BME280;57919;56.194;95.716;2023-12-20T04:33:19;101328.69;;;-29.22;56.68
70458;BME280;57919;56.194;95.716;2023-12-20T04:43:21;101323.25;;;-29.51;56.77
70458;BME280;57919;56.194;95.716;2023-12-20T04:53:23;101325.06;;;-29.33;57.16
70458;BME280;57919;56.194;95.716;2023-12-20T05:03:25;101330.22;;;-29.57;55.70
70458;BME280;57919;56.194;95.716;2023-12-20T05:13:27;101302.13;;;-30.09;55.69
70458;BME280;57919;56.194;95.716;2023-12-20T05:23:29;101310.91;;;-30.05;57.01
70458;BME280;57919;56.194;95.716;2023-12-20T05:33:32;101310.81;;;-29.65;57.43
70458;BME280;57919;56.194;95.716;2023-12-20T05:43:33;101297.94;;;-29.75;56.85
70458;BME280;57919;56.194;95.716;2023-12-20T05:53:35;101288.38;;;-29.36;57.38
70458;BME280;57919;56.194;95.716;2023-12-20T06:03:41;101287.91;;;-28.65;57.49
70458;BME280;57919;56.194;95.716;2023-12-20T06:13:44;101284.47;;;-28.65;56.54
70458;BME280;57919;56.194;95.716;2023-12-20T06:23:46;101294.91;;;-28.53;57.28
70458;BME280;57919;56.194;95.716;2023-12-20T06:33:48;101272.38;;;-28.42;57.11
70458;BME280;57919;56.194;95.716;2023-12-20T06:43:58;101268.03;;;-28.43;56.83
70458;BME280;57919;56.194;95.716;2023-12-20T06:54:00;101263.56;;;-28.37;57.32
70458;BME280;57919;56.194;95.716;2023-12-20T07:04:04;101277.91;;;-28.37;56.79
70458;BME280;57919;56.194;95.716;2023-12-20T07:14:06;101274.47;;;-28.46;57.11
70458;BME280;57919;56.194;95.716;2023-12-20T07:24:08;101279.38;;;-28.22;57.88
70458;BME280;57919;56.194;95.716;2023-12-20T07:34:10;101285.53;;;-27.75;57.96
70458;BME280;57919;56.194;95.716;2023-12-20T07:44:12;101260.69;;;-27.69;57.87
70458;BME280;57919;56.194;95.716;2023-12-20T07:54:14;101280.13;;;-27.42;57.77
70458;BME280;57919;56.194;95.716;2023-12-20T08:04:16;101284.91;;;-27.37;57.66
70458;BME280;57919;56.194;95.716;2023-12-20T08:14:17;101290.72;;;-27.38;57.67
70458;BME280;57919;56.194;95.716;2023-12-20T08:24:19;101302.13;;;-27.43;57.89
70458;BME280;57919;56.194;95.716;2023-12-20T08:34:22;101300.28;;;-25.27;60.33
70458;BME280;57919;56.194;95.716;2023-12-20T08:44:25;101298.47;;;-26.06;56.75
70458;BME280;57919;56.194;95.716;2023-12-20T08:54:27;101307.34;;;-27.05;56.66
70458;BME280;57919;56.194;95.716;2023-12-20T09:04:30;101317.94;;;-27.73;56.84
70458;BME280;57919;56.194;95.716;2023-12-20T09:14:31;101318.06;;;-28.25;56.98
70458;BME280;57919;56.194;95.716;2023-12-20T09:24:33;101289.38;;;-28.67;57.33
70458;BME280;57919;56.194;95.716;2023-12-20T09:34:36;101298.34;;;-28.79;57.56
70458;BME280;57919;56.194;95.716;2023-12-20T09:44:39;101328.66;;;-28.63;57.92
70458;BME280;57919;56.194;95.716;2023-12-20T09:54:44;101324.59;;;-28.70;57.71
70458;BME280;57919;56.194;95.716;2023-12-20T10:04:47;101324.47;;;-28.45;61.93
70458;BME280;57919;56.194;95.716;2023-12-20T10:14:50;101330.84;;;-27.97;59.09
70458;BME280;57919;56.194;95.716;2023-12-20T10:24:52;101327.47;;;-28.49;58.28
70458;BME280;57919;56.194;95.716;2023-12-20T10:34:55;101333.28;;;-28.59;58.39
70458;BME280;57919;56.194;95.716;2023-12-20T10:44:59;101314.78;;;-28.49;58.31
70458;BME280;57919;56.194;95.716;2023-12-20T10:55:01;101323.13;;;-28.33;58.81
70458;BME280;57919;56.194;95.716;2023-12-20T11:15:19;101309.31;;;-27.83;58.58
70458;BME280;57919;56.194;95.716;2023-12-20T11:25:21;101311.94;;;-27.65;58.93
70458;BME280;57919;56.194;95.716;2023-12-20T11:35:28;101308.53;;;-27.38;58.81
70458;BME280;57919;56.194;95.716;2023-12-20T11:45:30;101299.78;;;-27.22;58.72
70458;BME280;57919;56.194;95.716;2023-12-20T11:55:33;101293.56;;;-27.35;58.89
70458;BME280;57919;56.194;95.716;2023-12-20T12:05:35;101303.34;;;-27.48;58.83
70458;BME280;57919;56.194;95.716;2023-12-20T12:15:37;101301.25;;;-27.52;58.71
70458;BME280;57919;56.194;95.716;2023-12-20T12:25:39;101300.78;;;-27.84;58.13
70458;BME280;57919;56.194;95.716;2023-12-20T12:35:43;101290.38;;;-28.04;58.62
70458;BME280;57919;56.194;95.716;2023-12-20T12:45:45;101261.94;;;-27.92;58.95
70458;BME280;57919;56.194;95.716;2023-12-20T12:55:46;101270.47;;;-27.91;58.50
70458;BME280;57919;56.194;95.716;2023-12-20T13:05:49;101273.06;;;-28.17;58.96
70458;BME280;57919;56.194;95.716;2023-12-20T13:15:51;101266.97;;;-28.28;58.47
70458;BME280;57919;56.194;95.716;2023-12-20T13:25:56;101259.53;;;-28.35;58.76
70458;BME280;57919;56.194;95.716;2023-12-20T13:35:59;101262.31;;;-28.14;58.82
70458;BME280;57919;56.194;95.716;2023-12-20T13:46:01;101269.16;;;-28.05;59.03
70458;BME280;57919;56.194;95.716;2023-12-20T13:56:03;101243.97;;;-27.76;59.13
70458;BME280;57919;56.194;95.716;2023-12-20T14:06:06;101229.66;;;-27.57;59.04
70458;BME280;57919;56.194;95.716;2023-12-20T14:16:08;101236.88;;;-27.34;59.08
70458;BME280;57919;56.194;95.716;2023-12-20T14:26:12;101219.81;;;-27.07;58.99
70458;BME280;57919;56.194;95.716;2023-12-20T14:36:19;101215.78;;;-26.95;59.01
70458;BME280;57919;56.194;95.716;2023-12-20T14:46:22;101215.31;;;-26.91;59.12
70458;BME280;57919;56.194;95.716;2023-12-20T14:56:24;101202.53;;;-26.64;59.25
70458;BME280;57919;56.194;95.716;2023-12-20T15:06:27;101189.16;;;-26.61;59.29
70458;BME280;57919;56.194;95.716;2023-12-20T15:16:29;101192.47;;;-26.62;59.72
70458;BME280;57919;56.194;95.716;2023-12-20T15:26:37;101189.09;;;-26.52;60.32
70458;BME280;57919;56.194;95.716;2023-12-20T15:36:40;101172.13;;;-26.33;60.02
70458;BME280;57919;56.194;95.716;2023-12-20T15:46:43;101177.31;;;-26.03;59.85
70458;BME280;57919;56.194;95.716;2023-12-20T15:56:45;101164.16;;;-26.07;60.19
70458;BME280;57919;56.194;95.716;2023-12-20T16:06:49;101165.81;;;-26.08;60.47
70458;BME280;57919;56.194;95.716;2023-12-20T16:16:51;101146.91;;;-25.81;60.82
70458;BME280;57919;56.194;95.716;2023-12-20T16:26:53;101146.16;;;-25.70;60.48
70458;BME280;57919;56.194;95.716;2023-12-20T16:36:55;101152.78;;;-25.41;60.69
70458;BME280;57919;56.194;95.716;2023-12-20T16:46:57;101149.72;;;-24.97;60.85
70458;BME280;57919;56.194;95.716;2023-12-20T16:56:58;101148.00;;;-24.86;60.66
70458;BME280;57919;56.194;95.716;2023-12-20T17:07:01;101139.06;;;-24.81;60.35
70458;BME280;57919;56.194;95.716;2023-12-20T17:17:04;101140.91;;;-24.48;60.87
70458;BME280;57919;56.194;95.716;2023-12-20T17:27:05;101139.63;;;-24.21;60.75
70458;BME280;57919;56.194;95.716;2023-12-20T17:37:07;101119.53;;;-23.95;60.54
70458;BME280;57919;56.194;95.716;2023-12-20T17:47:09;101118.41;;;-23.76;60.73
70458;BME280;57919;56.194;95.716;2023-12-20T17:57:11;101117.75;;;-23.40;60.65
70458;BME280;57919;56.194;95.716;2023-12-20T18:07:13;101104.31;;;-23.26;60.49
70458;BME280;57919;56.194;95.716;2023-12-20T18:17:15;101093.16;;;-23.38;60.48
70458;BME280;57919;56.194;95.716;2023-12-20T18:27:17;101096.69;;;-23.48;60.69
70458;BME280;57919;56.194;95.716;2023-12-20T18:37:19;101108.78;;;-23.12;60.93
70458;BME280;57919;56.194;95.716;2023-12-20T18:47:22;101100.59;;;-22.96;60.74
70458;BME280;57919;56.194;95.716;2023-12-20T18:57:24;101098.03;;;-22.96;61.08
70458;BME280;57919;56.194;95.716;2023-12-20T19:07:26;101080.66;;;-22.88;60.94
70458;BME280;57919;56.194;95.716;2023-12-20T19:17:28;101085.06;;;-22.63;60.50
70458;BME280;57919;56.194;95.716;2023-12-20T19:27:30;101078.16;;;-22.52;61.08
70458;BME280;57919;56.194;95.716;2023-12-20T19:37:32;101078.94;;;-22.65;60.91
70458;BME280;57919;56.194;95.716;2023-12-20T19:47:34;101091.84;;;-22.40;60.54
70458;BME280;57919;56.194;95.716;2023-12-20T19:57:35;101089.38;;;-22.15;60.55
70458;BME280;57919;56.194;95.716;2023-12-20T20:07:39;101086.59;;;-21.93;60.89
70458;BME280;57919;56.194;95.716;2023-12-20T20:17:41;101091.13;;;-22.02;61.09
70458;BME280;57919;56.194;95.716;2023-12-20T20:27:43;101090.03;;;-22.06;61.21
70458;BME280;57919;56.194;95.716;2023-12-20T20:37:45;101079.97;;;-22.03;61.32
70458;BME280;57919;56.194;95.716;2023-12-20T20:47:47;101085.31;;;-21.75;61.14
70458;BME280;57919;56.194;95.716;2023-12-20T20:57:49;101086.84;;;-21.40;61.25
70458;BME280;57919;56.194;95.716;2023-12-20T21:07:52;101069.97;;;-21.37;61.19
70458;BME280;57919;56.194;95.716;2023-12-20T21:17:56;101091.72;;;-21.18;61.23
70458;BME280;57919;56.194;95.716;2023-12-20T21:27:58;101084.44;;;-20.99;61.46
70458;BME280;57919;56.194;95.716;2023-12-20T21:38:00;101089.81;;;-21.21;61.46
70458;BME280;57919;56.194;95.716;2023-12-20T21:48:04;101086.72;;;-21.04;62.03
70458;BME280;57919;56.194;95.716;2023-12-20T21:58:05;101077.81;;;-20.96;61.52
70458;BME280;57919;56.194;95.716;2023-12-20T22:08:09;101085.44;;;-20.84;61.67
70458;BME280;57919;56.194;95.716;2023-12-20T22:18:13;101087.44;;;-20.53;61.93
70458;BME280;57919;56.194;95.716;2023-12-20T22:28:14;101079.72;;;-20.53;61.54
70458;BME280;57919;56.194;95.716;2023-12-20T22:38:17;101071.91;;;-20.81;62.64
70458;BME280;57919;56.194;95.716;2023-12-20T22:48:19;101050.25;;;-20.98;63.05
70458;BME280;57919;56.194;95.716;2023-12-20T22:58:21;101065.06;;;-21.07;64.04
70458;BME280;57919;56.194;95.716;2023-12-20T23:08:23;101058.56;;;-20.89;63.33
70458;BME280;57919;56.194;95.716;2023-12-20T23:18:25;101065.28;;;-20.91;64.67
70458;BME280;57919;56.194;95.716;2023-12-20T23:28:27;101057.25;;;-20.96;65.21
70458;BME280;57919;56.194;95.716;2023-12-20T23:38:29;101037.69;;;-20.93;65.97
70458;BME280;57919;56.194;95.716;2023-12-20T23:48:31;101056.78;;;-20.77;66.11
70458;BME280;57919;56.194;95.716;2023-12-20T23:58:35;101052.84;;;-20.58;66.68
